Time;durP1;ratioP1;P1;durP2;ratioP2;P2;SDS_P1;SDS_P2;PMS_P1;PMS_P2;Temp;Humidity;BMP_temperature;BMP_pressure;BME280_temperature;BME280_humidity;BME280_pressure;Samples;Min_cycle;Max_cycle;Signal;HPM_P1;HPM_P2
2022/06/23 00:01:45;;;;;;;2.13;1.50;;;25.10;53.20;;;;;;5094464;28;20028;-50
2022/06/23 00:04:18;;;;;;;3.17;2.03;;;24.90;60.60;;;;;;5094499;28;20028;-53
2022/06/23 00:06:57;;;;;;;2.05;1.40;;;25.10;84.40;;;;;;5094334;28;20047;-55
2022/06/23 00:09:39;;;;;;;2.85;1.52;;;24.90;55.40;;;;;;5094369;28;20530;-49
2022/06/23 00:12:29;;;;;;;2.20;1.58;;;25.00;53.10;;;;;;5094153;28;20111;-53
2022/06/23 00:14:55;;;;;;;3.83;1.80;;;;;;;;;;5094122;28;20043;-53
2022/06/23 00:17:30;;;;;;;2.03;1.50;;;25.00;65.70;;;;;;5093378;28;20024;-54
2022/06/23 00:19:58;;;;;;;3.47;1.83;;;25.00;76.00;;;;;;5094063;28;20060;-54
2022/06/23 00:22:26;;;;;;;3.55;1.90;;;25.10;53.30;;;;;;5094063;28;20027;-54
2022/06/23 00:24:56;;;;;;;1.73;1.60;;;25.20;57.80;;;;;;5093935;28;20032;-54
2022/06/23 00:27:29;;;;;;;2.45;1.90;;;24.90;53.20;;;;;;5094000;28;20482;-56
2022/06/23 00:30:00;;;;;;;3.60;1.98;;;24.80;57.00;;;;;;5094073;28;20458;-55
2022/06/23 00:32:28;;;;;;;3.22;1.70;;;25.10;55.50;;;;;;5093902;28;20051;-57
2022/06/23 00:35:04;;;;;;;2.40;1.67;;;25.10;83.50;;;;;;5093808;28;20474;-56
2022/06/23 00:37:30;;;;;;;2.75;1.73;;;;;;;;;;5075603;28;20510;-54
2022/06/23 00:40:05;;;;;;;4.70;1.90;;;25.20;80.40;;;;;;5093688;28;20431;-55
2022/06/23 00:42:35;;;;;;;2.38;1.80;;;25.30;78.70;;;;;;5093641;28;20115;-52
2022/06/23 00:45:10;;;;;;;2.85;1.80;;;25.00;53.10;;;;;;5093923;28;20020;-55
2022/06/23 00:47:48;;;;;;;3.58;1.75;;;24.90;84.20;;;;;;5093754;28;20036;-55
2022/06/23 00:50:35;;;;;;;2.30;1.65;;;24.90;58.20;;;;;;5093514;28;20032;-56
2022/06/23 00:53:20;;;;;;;2.35;1.50;;;24.80;83.90;;;;;;5093247;28;20034;-55
2022/06/23 00:55:59;;;;;;;2.95;1.77;;;24.90;53.30;;;;;;5092685;28;20046;-54
2022/06/23 00:58:33;;;;;;;3.85;1.67;;;23.80;52.90;;;;;;5093256;28;20039;-55
2022/06/23 01:01:17;;;;;;;2.35;1.73;;;24.90;53.00;;;;;;5093193;28;20427;-55
2022/06/23 01:04:03;;;;;;;2.58;1.88;;;24.80;63.90;;;;;;5093169;28;20390;-53
2022/06/23 01:07:07;;;;;;;2.95;1.70;;;25.20;81.00;;;;;;5093084;28;20142;-55
2022/06/23 01:09:40;;;;;;;3.33;1.67;;;24.90;53.40;;;;;;4990930;28;20080;-55
2022/06/23 01:12:27;;;;;;;2.58;1.88;;;25.30;84.10;;;;;;5078951;28;20044;-54
2022/06/23 01:14:59;;;;;;;3.60;1.70;;;24.90;53.30;;;;;;5092843;28;20028;-55
2022/06/23 01:17:34;;;;;;;1.90;1.70;;;25.10;83.90;;;;;;5093129;28;20032;-56
2022/06/23 01:20:22;;;;;;;2.10;1.65;;;24.80;83.80;;;;;;5092799;28;20024;-52
2022/06/23 01:22:51;;;;;;;4.43;1.83;;;25.00;67.10;;;;;;5092740;28;20032;-53
2022/06/23 01:25:54;;;;;;;2.33;1.83;;;24.90;53.10;;;;;;5092738;28;20063;-52
2022/06/23 01:28:30;;;;;;;3.50;2.17;;;24.50;82.80;;;;;;5092613;28;20063;-55
2022/06/23 01:31:00;;;;;;;2.80;1.92;;;25.10;73.80;;;;;;5092662;28;20024;-55
2022/06/23 01:33:39;;;;;;;3.58;1.83;;;24.90;53.30;;;;;;5092561;28;20024;-55
2022/06/23 01:36:32;;;;;;;2.95;1.60;;;24.70;58.50;;;;;;5092467;28;20039;-55
2022/06/23 01:39:04;;;;;;;3.55;1.67;;;24.80;84.20;;;;;;5092551;28;20024;-55
2022/06/23 01:41:52;;;;;;;2.15;1.60;;;24.50;56.80;;;;;;5092619;28;20031;-50
2022/06/23 01:44:46;;;;;;;2.28;1.75;;;24.90;53.20;;;;;;5092481;28;20377;-50
2022/06/23 01:47:42;;;;;;;2.38;1.45;;;25.10;82.30;;;;;;5092627;28;20043;-50
2022/06/23 01:50:13;;;;;;;5.30;2.10;;;24.90;53.10;;;;;;5092609;28;20031;-50
2022/06/23 01:52:44;;;;;;;2.58;2.10;;;24.90;53.30;;;;;;5092434;28;20020;-50
2022/06/23 01:55:18;;;;;;;2.90;1.75;;;24.80;84.90;;;;;;5092344;28;20039;-50
2022/06/23 01:57:53;;;;;;;5.10;2.00;;;24.90;84.90;;;;;;5092535;28;20043;-49
2022/06/23 02:00:21;;;;;;;1.63;1.52;;;25.00;84.90;;;;;;5092278;28;20076;-52
2022/06/23 02:02:47;;;;;;;2.70;1.90;;;;;;;;;;5092161;28;20073;-51
2022/06/23 02:05:38;;;;;;;3.25;1.80;;;24.80;60.20;;;;;;5092217;28;20055;-49
2022/06/23 02:08:42;;;;;;;2.83;2.00;;;24.50;84.40;;;;;;5091820;28;20083;-51
2022/06/23 02:11:22;;;;;;;3.80;2.15;;;24.80;84.30;;;;;;5092093;28;20535;-50
2022/06/23 02:13:57;;;;;;;3.28;1.75;;;24.80;84.20;;;;;;5092093;28;20486;-50
2022/06/23 02:16:43;;;;;;;3.05;1.80;;;24.80;53.00;;;;;;5073978;28;20477;-49
2022/06/23 02:19:17;;;;;;;1.80;1.70;;;24.80;53.00;;;;;;5092015;28;20043;-50
2022/06/23 02:21:51;;;;;;;2.30;2.10;;;25.00;57.40;;;;;;5091986;28;20032;-50
2022/06/23 02:24:17;;;;;;;3.65;1.50;;;;;;;;;;5092219;28;20020;-49
2022/06/23 02:27:02;;;;;;;2.22;1.80;;;24.70;53.00;;;;;;5091853;28;20040;-50
2022/06/23 02:29:39;;;;;;;3.25;1.70;;;24.80;53.10;;;;;;5091832;28;20036;-51
2022/06/23 02:32:19;;;;;;;2.50;1.70;;;24.90;79.90;;;;;;5092209;28;20428;-50
2022/06/23 02:34:54;;;;;;;3.22;1.60;;;24.70;53.10;;;;;;5091987;28;20198;-54
2022/06/23 02:37:45;;;;;;;2.78;1.98;;;24.60;74.30;;;;;;5091959;28;20381;-56
2022/06/23 02:40:26;;;;;;;3.17;2.03;;;24.70;53.00;;;;;;5093549;28;20089;-56
2022/06/23 02:43:04;;;;;;;2.97;1.50;;;24.70;53.20;;;;;;5095907;28;20448;-54
2022/06/23 02:45:42;;;;;;;3.92;1.90;;;24.70;84.00;;;;;;5096025;28;20069;-56
2022/06/23 02:48:22;;;;;;;2.10;1.55;;;24.60;84.00;;;;;;5095643;28;20036;-55
2022/06/23 02:51:07;;;;;;;3.05;1.85;;;24.80;84.60;;;;;;5095996;28;20379;-56
2022/06/23 02:53:42;;;;;;;3.03;1.98;;;24.60;60.20;;;;;;5095705;28;20032;-55
2022/06/23 02:56:34;;;;;;;2.42;1.70;;;24.80;84.60;;;;;;5095597;28;20031;-55
2022/06/23 02:59:08;;;;;;;2.67;1.90;;;24.50;84.70;;;;;;5095535;28;20196;-54
2022/06/23 03:01:52;;;;;;;3.90;1.60;;;24.90;84.70;;;;;;5095712;28;20032;-56
2022/06/23 03:04:23;;;;;;;1.95;1.70;;;24.60;84.70;;;;;;5095447;28;20035;-55
2022/06/23 03:07:17;;;;;;;2.10;1.65;;;24.60;53.30;;;;;;5095568;28;20059;-53
2022/06/23 03:09:47;;;;;;;2.63;1.48;;;24.60;53.40;;;;;;5095236;28;20402;-54
2022/06/23 03:12:58;;;;;;;2.80;1.45;;;24.50;84.50;;;;;;5095391;28;20054;-55
2022/06/23 03:15:29;;;;;;;2.03;1.52;;;24.60;53.50;;;;;;5086653;28;20048;-55
2022/06/23 03:18:04;;;;;;;4.78;2.00;;;24.70;65.90;;;;;;5095236;28;20020;-56
2022/06/23 03:20:39;;;;;;;2.90;1.55;;;24.40;83.40;;;;;;5095348;28;20024;-56
2022/06/23 03:23:36;;;;;;;2.97;1.60;;;24.60;71.20;;;;;;5095052;28;20031;-55
2022/06/23 03:26:23;;;;;;;2.25;1.98;;;24.50;53.10;;;;;;5095026;28;20435;-55
2022/06/23 03:29:11;;;;;;;2.47;1.55;;;24.50;53.40;;;;;;5095034;28;20426;-51
2022/06/23 03:32:16;;;;;;;2.47;1.80;;;24.60;53.20;;;;;;5094817;28;20073;-54
2022/06/23 03:34:56;;;;;;;2.47;1.88;;;24.40;84.40;;;;;;5092884;28;20448;-53
2022/06/23 03:37:57;;;;;;;1.55;1.40;;;24.30;61.90;;;;;;5094911;28;20028;-54
2022/06/23 03:43:43;;;;;;;1.67;1.40;;;24.20;84.30;;;;;;5094708;28;20043;-56
2022/06/23 03:46:31;;;;;;;4.07;1.90;;;24.50;53.10;;;;;;5094709;28;20023;-56
2022/06/23 03:49:07;;;;;;;3.15;1.92;;;24.70;69.70;;;;;;5081339;28;20048;-49
2022/06/23 03:51:40;;;;;;;1.88;1.73;;;24.60;53.80;;;;;;5093458;28;20024;-49
2022/06/23 03:54:16;;;;;;;2.30;1.38;;;24.50;53.10;;;;;;5094895;28;20036;-50
2022/06/23 03:57:18;;;;;;;2.58;1.98;;;24.40;84.40;;;;;;5094512;28;20157;-50
2022/06/23 04:00:13;;;;;;;1.67;1.58;;;24.40;54.90;;;;;;5055628;28;20492;-50
2022/06/23 04:02:44;;;;;;;2.33;1.50;;;24.50;53.10;;;;;;5094345;28;20020;-51
2022/06/23 04:05:38;;;;;;;2.63;1.80;;;24.50;53.30;;;;;;5094516;28;20028;-50
2022/06/23 04:08:04;;;;;;;2.00;1.85;;;24.70;84.50;;;;;;5046720;28;20047;-51
2022/06/23 04:10:36;;;;;;;2.22;1.73;;;24.00;56.20;;;;;;5094383;28;20056;-51
2022/06/23 04:13:25;;;;;;;2.83;1.80;;;24.60;84.30;;;;;;5094293;28;20039;-50
2022/06/23 04:15:54;;;;;;;3.92;1.90;;;24.50;56.80;;;;;;5083122;28;20559;-51
2022/06/23 04:18:25;;;;;;;3.67;1.80;;;24.50;84.30;;;;;;5094211;28;20394;-50
2022/06/23 04:21:21;;;;;;;1.75;1.60;;;24.30;77.90;;;;;;5094071;28;20016;-49
2022/06/23 04:23:53;;;;;;;4.00;2.15;;;24.30;84.10;;;;;;5094040;28;20024;-50
2022/06/23 04:26:28;;;;;;;2.03;1.70;;;24.80;57.70;;;;;;5094274;28;20016;-49
2022/06/23 04:29:20;;;;;;;2.17;1.77;;;23.90;72.50;;;;;;5093906;28;20035;-50
2022/06/23 04:31:52;;;;;;;2.33;1.70;;;24.50;62.80;;;;;;5094092;28;20107;-49
2022/06/23 04:34:25;;;;;;;3.17;1.80;;;24.40;84.60;;;;;;5093843;28;20031;-49
2022/06/23 04:36:51;;;;;;;6.10;1.63;;;;;;;;;;5093828;28;20024;-49
2022/06/23 04:39:41;;;;;;;2.70;1.88;;;24.60;72.50;;;;;;5093775;28;20133;-50
2022/06/23 04:42:23;;;;;;;1.65;1.20;;;24.20;84.60;;;;;;5093706;28;20051;-51
2022/06/23 04:45:24;;;;;;;2.42;1.77;;;24.40;53.30;;;;;;5093939;28;20028;-51
2022/06/23 04:47:53;;;;;;;1.92;1.60;;;24.30;71.30;;;;;;5071269;28;20226;-50
2022/06/23 04:50:38;;;;;;;2.28;1.45;;;24.40;53.40;;;;;;5093503;28;20502;-50
2022/06/23 04:53:05;;;;;;;2.15;1.70;;;24.20;60.10;;;;;;5093523;28;20020;-50
2022/06/23 04:55:33;;;;;;;2.17;1.67;;;24.40;84.70;;;;;;5093424;28;20032;-50
2022/06/23 04:58:21;;;;;;;1.52;1.40;;;24.20;76.20;;;;;;5093367;28;20020;-50
2022/06/23 05:00:49;;;;;;;2.00;1.80;;;24.40;53.20;;;;;;5093628;28;20020;-51
2022/06/23 05:03:40;;;;;;;2.35;1.73;;;24.70;70.70;;;;;;5093032;28;20101;-50
2022/06/23 05:06:36;;;;;;;1.75;1.50;;;24.30;84.00;;;;;;5093487;28;20020;-50
2022/06/23 05:09:16;;;;;;;1.90;1.58;;;24.30;83.90;;;;;;5093062;28;20564;-51
2022/06/23 05:11:58;;;;;;;2.38;1.60;;;24.00;72.40;;;;;;5093460;28;20399;-51
2022/06/23 05:14:46;;;;;;;1.88;1.42;;;24.30;67.80;;;;;;5093145;28;20459;-49
2022/06/23 05:17:18;;;;;;;3.60;1.63;;;24.70;85.20;;;;;;5093319;28;20028;-51
2022/06/23 05:19:46;;;;;;;2.28;1.55;;;24.00;84.40;;;;;;5093267;28;20387;-50
2022/06/23 05:22:16;;;;;;;5.38;1.70;;;24.60;84.60;;;;;;5093334;28;20024;-50
2022/06/23 05:24:45;;;;;;;1.58;1.42;;;24.70;84.50;;;;;;5093121;28;20016;-54
2022/06/23 05:27:25;;;;;;;1.60;1.30;;;24.50;56.40;;;;;;5092908;28;20035;-50
2022/06/23 05:29:58;;;;;;;;;;;24.50;54.20;;;;;;5093452;28;20024;-55
2022/06/23 05:32:36;;;;;;;2.83;1.60;;;24.40;84.70;;;;;;5093026;28;19940;-50
2022/06/23 05:35:12;;;;;;;2.13;1.75;;;24.60;84.70;;;;;;5092961;28;20107;-53
2022/06/23 05:37:46;;;;;;;2.70;1.85;;;24.40;53.50;;;;;;5092845;28;20020;-50
2022/06/23 05:40:36;;;;;;;1.75;1.65;;;24.10;63.80;;;;;;5093058;28;20028;-51
2022/06/23 05:43:02;;;;;;;2.47;1.55;;;24.70;85.20;;;;;;5092766;28;20024;-50
2022/06/23 05:45:42;;;;;;;2.15;1.65;;;24.40;53.30;;;;;;5092722;28;20034;-50
2022/06/23 05:48:13;;;;;;;3.63;1.52;;;24.20;72.40;;;;;;5092640;28;20036;-50
2022/06/23 05:51:05;;;;;;;2.15;1.52;;;24.50;53.20;;;;;;5092470;28;20027;-52
2022/06/23 05:53:48;;;;;;;4.05;1.65;;;24.30;76.00;;;;;;5053848;28;20047;-51
2022/06/23 05:56:23;;;;;;;2.22;1.48;;;24.50;84.90;;;;;;5092372;28;20046;-51
2022/06/23 05:58:58;;;;;;;2.35;1.70;;;24.50;53.60;;;;;;5092265;28;20020;-49
2022/06/23 06:01:39;;;;;;;2.17;1.70;;;24.30;76.50;;;;;;5092231;28;20024;-52
2022/06/23 06:04:18;;;;;;;2.75;1.60;;;24.50;53.40;;;;;;5092177;28;20036;-51
2022/06/23 06:06:45;;;;;;;2.53;1.75;;;24.30;85.50;;;;;;5092385;28;20020;-50
2022/06/23 06:12:01;;;;;;;3.88;1.77;;;24.30;70.10;;;;;;5092119;28;20028;-51
2022/06/23 06:14:31;;;;;;;2.90;1.80;;;24.50;53.70;;;;;;5091434;28;20024;-51
2022/06/23 06:16:58;;;;;;;4.55;1.77;;;24.40;53.80;;;;;;5092686;28;20028;-51
2022/06/23 06:19:27;;;;;;;2.03;1.83;;;24.70;54.00;;;;;;5091990;28;20024;-50
2022/06/23 06:21:56;;;;;;;2.15;1.70;;;24.50;53.90;;;;;;5092013;28;20031;-52
2022/06/23 06:24:36;;;;;;;1.52;1.42;;;23.90;85.60;;;;;;5091892;28;20016;-50
2022/06/23 06:27:03;;;;;;;3.57;1.57;;;24.50;84.00;;;;;;5091924;28;20036;-51
2022/06/23 06:29:34;;;;;;;1.65;1.30;;;24.50;53.40;;;;;;5092097;28;20394;-50
2022/06/23 06:32:11;;;;;;;1.98;1.75;;;24.30;85.80;;;;;;5091911;28;20024;-51
2022/06/23 06:34:41;;;;;;;3.67;1.77;;;24.40;55.50;;;;;;5091898;28;20031;-50
2022/06/23 06:37:09;;;;;;;2.88;1.70;;;24.50;53.90;;;;;;5091901;28;20095;-52
2022/06/23 06:39:46;;;;;;;3.72;2.20;;;24.60;61.30;;;;;;5092109;28;20032;-50
2022/06/23 06:42:27;;;;;;;5.82;1.80;;;24.50;53.50;;;;;;5091809;28;20031;-52
2022/06/23 06:44:56;;;;;;;4.22;2.00;;;24.50;53.80;;;;;;5091751;28;20127;-50
2022/06/23 06:47:28;;;;;;;3.78;1.80;;;24.00;86.20;;;;;;5091942;28;20554;-50
2022/06/23 06:49:57;;;;;;;1.63;1.48;;;24.20;86.30;;;;;;5091907;28;20092;-52
2022/06/23 06:52:23;;;;;;;2.13;1.63;;;24.50;54.40;;;;;;5092168;28;20050;-52
2022/06/23 06:54:58;;;;;;;4.25;1.83;;;24.60;75.80;;;;;;5091746;28;20490;-51
2022/06/23 06:57:35;;;;;;;5.30;1.85;;;24.30;86.80;;;;;;5091730;28;20028;-50
2022/06/23 07:00:07;;;;;;;5.55;3.05;;;24.40;86.70;;;;;;5091454;28;20028;-51
2022/06/23 07:02:46;;;;;;;5.03;3.80;;;24.50;66.50;;;;;;5091645;28;20032;-50
2022/06/23 07:05:43;;;;;;;10.25;4.45;;;24.40;53.00;;;;;;5092380;28;20024;-51
2022/06/23 07:08:17;;;;;;;7.78;4.38;;;24.50;74.50;;;;;;5078090;28;20055;-51
2022/06/23 07:10:49;;;;;;;12.98;4.88;;;24.50;85.60;;;;;;5092090;28;20032;-52
2022/06/23 07:13:44;;;;;;;10.00;5.20;;;24.30;52.60;;;;;;5091923;28;20066;-50
2022/06/23 07:16:26;;;;;;;8.80;4.90;;;24.20;85.20;;;;;;5091891;28;20024;-51
2022/06/23 07:18:55;;;;;;;8.45;5.10;;;24.40;81.90;;;;;;5091873;28;20552;-52
2022/06/23 07:21:46;;;;;;;18.30;5.65;;;24.40;54.10;;;;;;5091861;28;20421;-50
2022/06/23 07:24:17;;;;;;;9.32;5.20;;;24.10;85.30;;;;;;5092122;28;20024;-50
2022/06/23 07:26:43;;;;;;;10.32;4.93;;;;;;;;;;5094228;28;20505;-51
2022/06/23 07:29:55;;;;;;;9.95;4.82;;;24.20;52.50;;;;;;5095614;28;20379;-51
2022/06/23 07:32:22;;;;;;;9.82;5.10;;;;;;;;;;5073261;28;20051;-50
2022/06/23 07:34:54;;;;;;;10.82;5.03;;;24.20;75.00;;;;;;5095490;28;20425;-50
2022/06/23 07:37:35;;;;;;;9.43;5.68;;;24.20;86.00;;;;;;5095432;28;20016;-49
2022/06/23 07:40:05;;;;;;;11.15;5.35;;;24.00;73.00;;;;;;5095347;28;20047;-50
2022/06/23 07:42:55;;;;;;;15.93;5.28;;;24.20;55.30;;;;;;5095072;28;20052;-50
2022/06/23 07:45:26;;;;;;;11.43;5.65;;;24.20;53.50;;;;;;5095476;28;20394;-51
2022/06/23 07:47:52;;;;;;;14.40;5.35;;;24.20;86.90;;;;;;5095049;28;20062;-50
2022/06/23 07:50:18;;;;;;;12.13;5.32;;;24.30;87.10;;;;;;5094966;28;20478;-50
2022/06/23 07:52:45;;;;;;;19.10;6.32;;;24.30;86.40;;;;;;5094931;28;20024;-49
2022/06/23 07:55:28;;;;;;;12.63;6.22;;;24.20;53.70;;;;;;5094878;28;20020;-51
2022/06/23 07:57:54;;;;;;;13.23;6.20;;;24.10;86.60;;;;;;5095492;28;20111;-53
2022/06/23 08:00:20;;;;;;;13.02;5.45;;;24.20;87.00;;;;;;5094729;28;20028;-50
2022/06/23 08:03:01;;;;;;;9.82;5.97;;;24.20;87.10;;;;;;5094486;28;20031;-52
2022/06/23 08:05:45;;;;;;;11.93;5.55;;;24.10;71.90;;;;;;5094897;28;20052;-51
2022/06/23 08:08:15;;;;;;;13.48;5.10;;;24.20;61.20;;;;;;5094314;28;20044;-53
2022/06/23 08:10:42;;;;;;;10.77;6.00;;;24.40;65.90;;;;;;5094686;28;20020;-54
2022/06/23 08:13:25;;;;;;;12.25;5.18;;;24.20;80.30;;;;;;5094396;28;20032;-53
2022/06/23 08:18:55;;;;;;;13.13;5.50;;;24.30;55.40;;;;;;5094420;28;20107;-51
2022/06/23 08:21:28;;;;;;;14.02;5.25;;;24.60;88.60;;;;;;5094327;28;20038;-52
2022/06/23 08:24:08;;;;;;;11.40;5.78;;;24.40;89.00;;;;;;5094332;28;20024;-50
2022/06/23 08:26:38;;;;;;;;;;;24.40;57.40;;;;;;5094848;28;20024;-51
2022/06/23 08:29:09;;;;;;;12.60;5.45;;;24.60;89.00;;;;;;5094199;28;19908;-50
2022/06/23 08:31:34;;;;;;;16.17;5.50;;;24.30;89.50;;;;;;5094378;28;20024;-51
2022/06/23 08:34:01;;;;;;;12.13;5.75;;;24.30;90.00;;;;;;5094206;28;20359;-50
2022/06/23 08:36:41;;;;;;;16.77;6.10;;;24.50;90.10;;;;;;5093957;28;20016;-52
2022/06/23 08:39:28;;;;;;;13.27;6.50;;;24.30;57.20;;;;;;5093391;28;20039;-54
2022/06/23 08:42:16;;;;;;;21.75;6.57;;;24.50;57.90;;;;;;5093820;28;20058;-52
2022/06/23 08:44:47;;;;;;;15.45;6.65;;;24.70;90.40;;;;;;5093843;28;20020;-49
2022/06/23 08:47:45;;;;;;;13.48;6.50;;;24.80;62.80;;;;;;5093943;28;20398;-51
2022/06/23 08:50:18;;;;;;;23.83;6.78;;;24.60;58.70;;;;;;5094513;28;20023;-49
2022/06/23 08:52:54;;;;;;;14.43;6.55;;;24.60;83.40;;;;;;5094108;28;20028;-50
2022/06/23 08:55:40;;;;;;;16.42;6.45;;;24.90;90.40;;;;;;5093839;28;20031;-50
2022/06/23 08:58:21;;;;;;;14.52;5.90;;;24.70;57.90;;;;;;5093673;28;20028;-50
2022/06/23 09:01:10;;;;;;;10.95;5.53;;;24.80;90.00;;;;;;5093751;28;20028;-50
2022/06/23 09:04:14;;;;;;;14.05;6.65;;;24.70;90.10;;;;;;5092905;28;20044;-50
2022/06/23 09:06:45;;;;;;;11.23;5.28;;;24.80;90.30;;;;;;5089000;28;20098;-56
2022/06/23 09:09:26;;;;;;;16.80;6.63;;;24.80;58.00;;;;;;5093368;28;20071;-54
2022/06/23 09:11:56;;;;;;;17.50;6.35;;;24.60;82.00;;;;;;5093348;28;20028;-52
2022/06/23 09:14:21;;;;;;;;;;;24.80;58.30;;;;;;5093880;28;20032;-54
2022/06/23 09:16:50;;;;;;;11.48;5.47;;;24.90;56.90;;;;;;5093225;28;19911;-54
2022/06/23 09:19:27;;;;;;;12.35;5.40;;;24.90;88.80;;;;;;5093267;28;20036;-53
2022/06/23 09:22:15;;;;;;;13.77;5.50;;;25.00;56.80;;;;;;5093298;28;20035;-54
2022/06/23 09:24:56;;;;;;;13.85;5.55;;;25.00;89.00;;;;;;5093398;28;20039;-55
2022/06/23 09:27:51;;;;;;;12.73;5.40;;;24.90;88.30;;;;;;5093178;28;20068;-54
2022/06/23 09:30:20;;;;;;;12.45;5.85;;;25.00;89.80;;;;;;5056740;28;20032;-55
2022/06/23 09:33:17;;;;;;;11.52;6.25;;;25.20;89.60;;;;;;5093080;28;20039;-53
2022/06/23 09:36:08;;;;;;;15.10;6.68;;;25.10;89.90;;;;;;5092985;28;20197;-53
2022/06/23 09:38:36;;;;;;;13.77;5.38;;;25.20;90.00;;;;;;5081428;28;20111;-55
2022/06/23 09:41:40;;;;;;;19.30;6.15;;;25.20;89.90;;;;;;5092760;28;20031;-56
2022/06/23 09:44:25;;;;;;;18.75;7.35;;;24.90;89.70;;;;;;5092777;28;20097;-56
2022/06/23 09:47:21;;;;;;;10.25;5.80;;;25.30;89.90;;;;;;5092595;28;20044;-57
2022/06/23 09:49:55;;;;;;;16.10;6.38;;;25.30;57.90;;;;;;5091878;28;20036;-56
2022/06/23 09:52:58;;;;;;;16.42;5.72;;;25.40;57.90;;;;;;5092558;28;20031;-55
2022/06/23 09:55:51;;;;;;;14.57;5.45;;;25.40;57.80;;;;;;5092550;28;20027;-55
2022/06/23 09:58:31;;;;;;;18.65;6.35;;;25.50;58.00;;;;;;5092548;28;20042;-56
2022/06/23 10:00:57;;;;;;;15.07;5.88;;;;;;;;;;5092456;28;20024;-55
2022/06/23 10:03:43;;;;;;;10.85;4.90;;;26.40;59.10;;;;;;5092448;28;20024;-54
2022/06/23 10:06:36;;;;;;;10.07;5.70;;;25.60;57.60;;;;;;5092443;28;20039;-55
2022/06/23 10:09:11;;;;;;;17.75;6.22;;;25.70;90.50;;;;;;5092272;28;20048;-57
2022/06/23 10:11:39;;;;;;;19.00;6.75;;;25.70;90.50;;;;;;5092547;28;20050;-57
2022/06/23 10:14:10;;;;;;;18.02;6.43;;;25.80;59.30;;;;;;5092695;28;20161;-55
2022/06/23 10:16:36;;;;;;;15.95;6.63;;;;;;;;;;5092341;28;20028;-56
2022/06/23 10:19:27;;;;;;;14.88;6.80;;;26.20;90.40;;;;;;5092401;28;20035;-56
2022/06/23 10:22:10;;;;;;;18.83;6.68;;;25.90;59.20;;;;;;5092352;28;20024;-56
2022/06/23 10:24:57;;;;;;;17.05;6.63;;;25.90;90.70;;;;;;5092292;28;20059;-57
2022/06/23 10:27:41;;;;;;;18.05;6.13;;;26.00;59.40;;;;;;5092162;28;20482;-56
2022/06/23 10:30:11;;;;;;;15.27;5.60;;;25.70;70.50;;;;;;5092120;28;20490;-56
2022/06/23 10:33:08;;;;;;;16.38;6.28;;;25.60;90.40;;;;;;5092265;28;20031;-57
2022/06/23 10:36:08;;;;;;;17.30;6.05;;;26.00;73.40;;;;;;5092167;28;20028;-57
2022/06/23 10:39:14;;;;;;;12.13;5.60;;;26.10;58.80;;;;;;5038201;28;20068;-57
2022/06/23 10:42:01;;;;;;;12.57;5.70;;;26.40;90.60;;;;;;5086909;28;20040;-57
2022/06/23 10:44:43;;;;;;;15.48;5.80;;;26.20;58.80;;;;;;5092207;28;20111;-56
2022/06/23 10:47:45;;;;;;;11.57;5.40;;;26.20;58.80;;;;;;5091813;28;20036;-57
2022/06/23 10:50:40;;;;;;;13.52;4.95;;;26.20;58.80;;;;;;5092018;28;20466;-56
2022/06/23 10:53:53;;;;;;;12.93;4.63;;;26.50;90.40;;;;;;5092429;28;20036;-57
2022/06/23 10:56:32;;;;;;;12.70;4.35;;;26.20;90.20;;;;;;5046492;28;20395;-56
2022/06/23 10:59:32;;;;;;;15.52;4.95;;;25.90;90.00;;;;;;5092023;28;20056;-57
2022/06/23 11:02:38;;;;;;;10.07;4.65;;;26.50;90.20;;;;;;5095045;28;20030;-50
2022/06/23 11:05:44;;;;;;;14.35;5.03;;;26.40;89.90;;;;;;5060459;28;20028;-50
2022/06/23 11:08:25;;;;;;;17.88;5.60;;;26.30;70.30;;;;;;5095137;28;20044;-50
2022/06/23 11:11:20;;;;;;;13.77;5.25;;;25.90;54.80;;;;;;5095630;28;20024;-50
2022/06/23 11:13:53;;;;;;;14.98;5.07;;;25.30;76.20;;;;;;5095475;28;20035;-49
2022/06/23 11:16:39;;;;;;;16.00;5.30;;;25.20;86.30;;;;;;5095334;28;20028;-48
2022/06/23 11:19:05;;;;;;;10.40;4.50;;;;;;;;;;5095105;28;20490;-48
2022/06/23 11:21:31;;;;;;;12.90;4.55;;;;;;;;;;5095189;28;20157;-50
2022/06/23 11:23:57;;;;;;;10.35;5.70;;;;;;;;;;5095140;28;20111;-49
2022/06/23 11:26:55;;;;;;;12.15;4.80;;;24.00;54.20;;;;;;5095250;28;20140;-57
2022/06/23 11:29:38;;;;;;;16.70;4.97;;;23.60;53.90;;;;;;5095359;28;20070;-58
2022/06/23 11:32:28;;;;;;;8.93;4.60;;;22.90;85.50;;;;;;5095202;28;20024;-55
2022/06/23 11:35:21;;;;;;;9.38;4.20;;;23.20;51.50;;;;;;5095251;28;20061;-57
2022/06/23 11:38:13;;;;;;;6.82;3.88;;;23.00;51.20;;;;;;5094889;28;20059;-55
2022/06/23 11:40:45;;;;;;;8.90;4.20;;;22.90;52.00;;;;;;5095000;28;20038;-56
2022/06/23 11:43:22;;;;;;;9.88;3.70;;;22.70;50.50;;;;;;5094967;28;20421;-56
2022/06/23 11:46:00;;;;;;;9.65;4.00;;;22.70;84.40;;;;;;5095103;28;20179;-57
2022/06/23 11:48:58;;;;;;;10.90;4.28;;;22.60;50.40;;;;;;5094448;28;20040;-55
2022/06/23 11:51:37;;;;;;;7.70;3.88;;;22.50;83.70;;;;;;5043070;28;20044;-57
2022/06/23 11:54:30;;;;;;;9.50;3.50;;;22.40;50.50;;;;;;5094538;28;20038;-57
2022/06/23 11:57:04;;;;;;;7.93;3.55;;;22.30;54.10;;;;;;5094364;28;20076;-56
2022/06/23 11:59:37;;;;;;;6.00;3.30;;;22.30;83.40;;;;;;5094456;28;20112;-56
2022/06/23 12:02:03;;;;;;;5.18;2.85;;;;;;;;;;5094539;28;20154;-57
2022/06/23 12:04:41;;;;;;;8.43;3.70;;;23.00;49.00;;;;;;5094461;28;20032;-57
2022/06/23 12:07:22;;;;;;;6.88;2.95;;;23.10;81.30;;;;;;5094570;28;20398;-56
2022/06/23 12:09:56;;;;;;;7.78;2.97;;;23.80;58.20;;;;;;5094340;28;20100;-56
2022/06/23 12:12:23;;;;;;;7.85;3.03;;;23.90;80.60;;;;;;5093653;28;20094;-56
2022/06/23 12:14:50;;;;;;;7.32;2.95;;;24.20;80.40;;;;;;5094619;28;20543;-57
2022/06/23 12:17:21;;;;;;;9.38;3.10;;;24.40;80.10;;;;;;5094688;28;20038;-57
2022/06/23 12:20:12;;;;;;;4.72;2.80;;;24.50;47.90;;;;;;5094813;28;20055;-57
2022/06/23 12:22:59;;;;;;;7.25;3.20;;;24.70;70.30;;;;;;5094642;28;20028;-58
2022/06/23 12:25:31;;;;;;;5.28;2.70;;;24.80;79.70;;;;;;5094674;28;20494;-57
2022/06/23 12:28:16;;;;;;;7.18;3.45;;;24.90;48.10;;;;;;5094337;28;20036;-57
2022/06/23 12:31:18;;;;;;;8.48;2.97;;;25.00;79.30;;;;;;5094255;28;20027;-56
2022/06/23 12:33:55;;;;;;;4.82;2.80;;;25.00;48.40;;;;;;5063275;28;20044;-57
2022/06/23 12:36:34;;;;;;;8.80;3.25;;;25.10;48.20;;;;;;5094203;28;20534;-56
2022/06/23 12:39:10;;;;;;;5.55;2.70;;;25.00;79.80;;;;;;5094179;28;20066;-57
2022/06/23 12:41:57;;;;;;;6.03;2.60;;;25.40;79.90;;;;;;5094309;28;20020;-56
2022/06/23 12:44:38;;;;;;;7.15;2.90;;;25.60;80.20;;;;;;5094199;28;20028;-55
2022/06/23 12:47:39;;;;;;;4.93;2.92;;;25.70;80.20;;;;;;5094300;28;20039;-56
2022/06/23 12:50:25;;;;;;;7.28;2.80;;;25.40;48.50;;;;;;5094044;28;20024;-55
2022/06/23 12:53:08;;;;;;;4.22;2.75;;;25.50;80.10;;;;;;5094013;28;20035;-55
2022/06/23 12:55:36;;;;;;;8.00;2.85;;;25.60;80.00;;;;;;5093968;28;20069;-55
2022/06/23 12:58:20;;;;;;;5.18;2.58;;;25.40;79.70;;;;;;5093885;28;20077;-54
2022/06/23 13:01:12;;;;;;;3.35;2.30;;;25.80;80.10;;;;;;5093814;28;20039;-55
2022/06/23 13:04:19;;;;;;;4.05;2.58;;;25.30;74.10;;;;;;5093749;28;20479;-55
2022/06/23 13:06:59;;;;;;;3.80;2.47;;;25.70;80.00;;;;;;5093529;28;20508;-55
2022/06/23 13:09:49;;;;;;;4.15;2.60;;;26.00;80.40;;;;;;5093380;28;20052;-55
2022/06/23 13:12:22;;;;;;;5.50;2.83;;;25.40;79.90;;;;;;5093634;28;20547;-53
2022/06/23 13:14:53;;;;;;;5.20;2.80;;;25.40;77.90;;;;;;5093605;28;20024;-53
2022/06/23 13:17:53;;;;;;;4.68;2.67;;;25.90;80.80;;;;;;5093745;28;20016;-54
2022/06/23 13:20:42;;;;;;;6.65;2.33;;;26.00;80.60;;;;;;5093524;28;20109;-53
2022/06/23 13:23:33;;;;;;;3.90;2.22;;;25.60;68.20;;;;;;5093228;28;20447;-52
2022/06/23 13:26:18;;;;;;;3.20;2.28;;;25.40;80.20;;;;;;5093614;28;20435;-55
2022/06/23 13:28:46;;;;;;;4.25;2.38;;;25.80;80.60;;;;;;5093228;28;20024;-55
2022/06/23 13:31:26;;;;;;;4.10;1.95;;;26.00;54.70;;;;;;5093253;28;20027;-53
2022/06/23 13:34:00;;;;;;;6.28;2.88;;;26.10;81.10;;;;;;5093306;28;20352;-55
2022/06/23 13:36:39;;;;;;;5.65;2.42;;;26.00;80.80;;;;;;5093075;28;20032;-55
2022/06/23 13:39:32;;;;;;;3.85;2.53;;;26.20;81.20;;;;;;5093309;28;20028;-55
2022/06/23 13:42:36;;;;;;;4.55;2.40;;;26.30;81.50;;;;;;5082786;28;20035;-56
2022/06/23 13:45:07;;;;;;;3.13;2.17;;;26.30;52.00;;;;;;5003052;28;20045;-56
2022/06/23 13:48:02;;;;;;;5.05;2.55;;;26.00;81.30;;;;;;5093164;28;20040;-56
2022/06/23 13:51:05;;;;;;;3.28;2.47;;;26.20;82.00;;;;;;5093046;28;20027;-55
2022/06/23 13:54:00;;;;;;;2.67;2.45;;;26.00;50.70;;;;;;5092803;28;20024;-54
2022/06/23 13:56:43;;;;;;;6.93;2.15;;;26.20;73.00;;;;;;5093012;28;20020;-53
2022/06/23 13:59:09;;;;;;;9.18;2.53;;;;;;;;;;5092741;28;20054;-56
2022/06/23 14:02:06;;;;;;;4.60;2.30;;;25.70;81.50;;;;;;5092635;28;20024;-52
2022/06/23 14:04:52;;;;;;;10.00;2.45;;;25.90;81.70;;;;;;5057605;28;20040;-50
2022/06/23 14:07:20;;;;;;;5.53;2.05;;;26.40;64.60;;;;;;5092509;28;20062;-51